Time;durP1;ratioP1;P1;durP2;ratioP2;P2;SDS_P1;SDS_P2;PMS_P1;PMS_P2;Temp;Humidity;BMP_temperature;BMP_pressure;BME280_temperature;BME280_humidity;BME280_pressure;Samples;Min_cycle;Max_cycle;Signal;HPM_P1;HPM_P2
2022/09/12 00:00:39;;;;;;;58.60;36.95;;;;;;;22.59;65.43;96927.66;179020;294;620771;-59
2022/09/12 00:01:41;;;;;;;50.80;33.40;;;;;;;22.56;65.42;96928.34;179760;293;617083;-53
2022/09/12 00:02:43;;;;;;;47.40;31.60;;;;;;;22.55;65.45;96933.64;179160;294;620545;-54
2022/09/12 00:03:45;;;;;;;49.50;34.30;;;;;;;22.52;65.48;96926.82;179186;294;617376;-58
2022/09/12 00:04:48;;;;;;;46.80;31.97;;;;;;;22.48;65.53;96933.61;179437;293;622253;-54
2022/09/12 00:05:50;;;;;;;47.20;31.97;;;;;;;22.48;65.58;96930.05;178923;294;618205;-55
2022/09/12 00:06:52;;;;;;;45.10;32.00;;;;;;;22.47;65.59;96923.72;179139;294;620457;-56
2022/09/12 00:07:54;;;;;;;1388.90;683.00;;;;;;;22.46;65.65;96930.39;179537;293;616839;-55
2022/09/12 00:08:56;;;;;;;469.20;307.35;;;;;;;22.42;65.71;96925.30;179867;293;620220;-54
2022/09/12 00:09:59;;;;;;;315.75;175.68;;;;;;;22.43;65.70;96930.25;178912;294;618473;-57
2022/09/12 00:11:01;;;;;;;346.18;199.68;;;;;;;22.41;65.70;96930.59;179088;293;621537;-56
2022/09/12 00:12:03;;;;;;;429.85;247.15;;;;;;;22.41;65.74;96933.36;179166;294;617850;-54
2022/09/12 00:13:05;;;;;;;406.30;218.37;;;;;;;22.40;65.72;96927.61;179818;293;621617;-56
2022/09/12 00:14:07;;;;;;;368.12;203.50;;;;;;;22.40;65.75;96929.56;179541;293;617020;-56
2022/09/12 00:15:09;;;;;;;359.77;184.35;;;;;;;22.39;65.76;96930.14;179008;294;620687;-57
2022/09/12 00:16:11;;;;;;;305.02;148.20;;;;;;;22.39;65.76;96924.61;179266;294;614896;-55
2022/09/12 00:17:14;;;;;;;278.88;139.77;;;;;;;22.38;65.76;96923.58;179987;293;621442;-54
2022/09/12 00:18:16;;;;;;;239.12;117.53;;;;;;;22.38;65.79;96922.20;179921;293;617778;-59
2022/09/12 00:19:18;;;;;;;249.95;121.15;;;;;;;22.37;65.81;96921.39;179857;293;621203;-58
2022/09/12 00:20:20;;;;;;;213.00;102.70;;;;;;;22.37;65.81;96920.59;179477;293;618315;-54
2022/09/12 00:21:22;;;;;;;261.15;140.12;;;;;;;22.37;65.80;96922.77;179401;293;620214;-56
2022/09/12 00:22:24;;;;;;;933.95;581.73;;;;;;;22.37;65.81;96917.25;179708;293;616332;-57
2022/09/12 00:23:26;;;;;;;889.98;547.13;;;;;;;22.37;65.82;96918.62;179934;293;621498;-54
2022/09/12 00:24:28;;;;;;;807.42;517.63;;;;;;;22.37;65.81;96915.87;179487;294;616274;-56
2022/09/12 00:25:31;;;;;;;914.10;572.65;;;;;;;22.37;65.82;96915.87;179367;293;621634;-58
2022/09/12 00:26:33;;;;;;;886.33;551.82;;;;;;;22.35;65.84;96907.70;179213;294;617785;-57
2022/09/12 00:27:35;;;;;;;863.18;544.20;;;;;;;22.35;66.01;96916.80;179040;294;621767;-55
2022/09/12 00:28:37;;;;;;;934.30;584.33;;;;;;;22.38;65.99;96921.63;179278;293;617007;-58
2022/09/12 00:29:39;;;;;;;929.05;578.38;;;;;;;22.39;65.99;96914.95;179159;294;620882;-56
2022/09/12 00:30:41;;;;;;;932.27;564.02;;;;;;;22.39;65.99;96916.33;179618;293;618300;-51
2022/09/12 00:31:43;;;;;;;891.32;541.23;;;;;;;22.41;65.93;96918.17;179013;294;620470;-55
2022/09/12 00:32:45;;;;;;;1044.05;618.97;;;;;;;22.42;65.91;96915.64;178529;294;617290;-58
2022/09/12 00:33:48;;;;;;;942.77;555.67;;;;;;;22.43;65.89;96915.86;179768;293;621329;-52
2022/09/12 00:34:50;;;;;;;932.58;538.60;;;;;;;22.44;65.87;96914.75;179334;294;617474;-53
2022/09/12 00:35:52;;;;;;;844.10;475.18;;;;;;;22.46;65.86;96909.68;179667;293;620475;-56
2022/09/12 00:36:54;;;;;;;841.15;473.67;;;;;;;22.48;65.83;96910.14;179578;293;617581;-53
2022/09/12 00:37:56;;;;;;;853.15;481.87;;;;;;;22.50;65.80;96905.66;179781;293;621464;-52
2022/09/12 00:38:58;;;;;;;732.55;394.93;;;;;;;22.51;65.78;96910.02;179322;293;617878;-56
2022/09/12 00:40:00;;;;;;;754.00;397.37;;;;;;;22.52;65.76;96910.25;179597;293;620602;-59
2022/09/12 00:41:03;;;;;;;723.30;378.42;;;;;;;22.53;65.78;96909.91;179127;293;616029;-53
2022/09/12 00:42:05;;;;;;;718.92;375.00;;;;;;;22.55;65.73;96906.83;179580;293;621555;-56
2022/09/12 00:43:07;;;;;;;566.65;271.62;;;;;;;22.56;65.72;96904.88;179373;293;617284;-55
2022/09/12 00:44:09;;;;;;;562.08;267.52;;;;;;;22.58;65.67;96903.95;179632;293;621611;-54
2022/09/12 00:45:11;;;;;;;540.98;250.20;;;;;;;22.59;65.64;96904.17;179530;293;618146;-53
2022/09/12 00:46:13;;;;;;;590.65;280.62;;;;;;;22.60;65.62;96907.97;179841;293;620422;-55
2022/09/12 00:47:15;;;;;;;520.65;234.43;;;;;;;22.62;65.58;96906.25;178599;294;616856;-58
2022/09/12 00:48:18;;;;;;;571.53;268.93;;;;;;;22.63;65.55;96900.38;179789;293;619430;-54
2022/09/12 00:49:20;;;;;;;462.45;199.00;;;;;;;22.63;65.53;96898.19;179471;293;619619;-56
2022/09/12 00:50:22;;;;;;;500.10;219.10;;;;;;;22.64;65.51;96901.98;179999;293;619684;-52
2022/09/12 00:51:24;;;;;;;467.37;200.45;;;;;;;22.64;65.49;96897.84;179257;294;617726;-53
2022/09/12 00:52:26;;;;;;;443.93;183.55;;;;;;;22.65;65.46;96896.72;179718;293;621493;-51
2022/09/12 00:53:29;;;;;;;414.07;168.43;;;;;;;22.65;65.43;96893.12;179088;294;617780;-55
2022/09/12 00:54:31;;;;;;;344.18;139.80;;;;;;;22.66;65.41;96898.33;180603;292;622116;-55
2022/09/12 00:55:33;;;;;;;316.05;128.87;;;;;;;22.66;65.41;96890.04;178653;293;618088;-53
2022/09/12 00:56:35;;;;;;;349.45;137.68;;;;;;;22.67;65.40;96896.37;178667;295;619770;-52
2022/09/12 00:57:37;;;;;;;312.75;127.53;;;;;;;22.67;65.39;96891.65;180563;292;617129;-56
2022/09/12 00:58:39;;;;;;;312.05;128.12;;;;;;;22.66;65.37;96894.19;178220;295;621095;-53
2022/09/12 00:59:41;;;;;;;300.00;121.92;;;;;;;22.66;65.33;96892.80;178821;294;616940;-52
2022/09/12 01:00:44;;;;;;;270.67;110.20;;;;;;;22.68;65.35;96892.45;180306;292;619790;-52
2022/09/12 01:01:46;;;;;;;243.80;100.30;;;;;;;22.66;65.31;96894.76;180390;292;618012;-54
2022/09/12 01:02:48;;;;;;;210.57;86.65;;;;;;;22.67;65.31;96899.13;180352;292;621276;-53
2022/09/12 01:03:50;;;;;;;218.45;89.32;;;;;;;22.68;65.29;96893.83;178727;295;619342;-54
2022/09/12 01:04:52;;;;;;;206.23;84.22;;;;;;;22.67;65.29;96878.41;179346;292;620302;-52
2022/09/12 01:05:54;;;;;;;194.60;80.95;;;;;;;22.67;65.26;96885.31;180772;292;617100;-54
2022/09/12 01:06:56;;;;;;;168.85;74.35;;;;;;;22.68;65.27;96886.92;180690;292;621935;-55
2022/09/12 01:07:59;;;;;;;154.55;67.12;;;;;;;22.67;65.25;96881.98;180155;292;617863;-53
2022/09/12 01:09:03;;;;;;;159.78;66.60;;;;;;;22.66;65.24;96882.33;180301;292;621572;-55
2022/09/12 01:10:04;;;;;;;143.60;62.10;;;;;;;22.66;65.25;96879.56;178599;295;586585;-56
2022/09/12 01:11:07;;;;;;;148.65;65.25;;;;;;;22.66;65.27;96876.80;179046;294;618907;-56
2022/09/12 01:12:09;;;;;;;137.12;61.88;;;;;;;22.65;65.26;96880.69;180043;292;618127;-51
2022/09/12 01:13:11;;;;;;;132.37;60.20;;;;;;;22.64;65.28;96874.94;178720;294;621687;-52
2022/09/12 01:14:13;;;;;;;120.87;56.13;;;;;;;22.64;65.27;96873.55;179456;294;617006;-54
2022/09/12 01:15:15;;;;;;;120.15;54.27;;;;;;;22.64;65.26;96878.50;179234;292;621567;-56
2022/09/12 01:16:18;;;;;;;97.12;47.98;;;;;;;22.63;65.25;96878.84;179314;294;618068;-54
2022/09/12 01:17:20;;;;;;;109.55;52.50;;;;;;;22.64;65.27;96884.59;178925;294;621242;-54
2022/09/12 01:18:22;;;;;;;105.35;50.95;;;;;;;22.63;65.27;96884.37;180370;292;617971;-54
2022/09/12 01:19:24;;;;;;;89.35;46.92;;;;;;;22.62;65.28;96880.80;178357;295;621538;-54
2022/09/12 01:20:27;;;;;;;90.17;47.85;;;;;;;22.60;65.31;96874.02;178890;294;618288;-51
2022/09/12 01:21:29;;;;;;;85.50;45.63;;;;;;;22.60;65.31;96876.78;180030;292;621608;-54
2022/09/12 01:22:31;;;;;;;75.87;41.50;;;;;;;22.59;65.30;96882.88;178451;295;617207;-57
2022/09/12 01:23:33;;;;;;;69.80;38.78;;;;;;;22.60;65.32;96882.30;179235;294;622129;-51
2022/09/12 01:24:35;;;;;;;77.10;41.98;;;;;;;22.58;65.31;96884.61;180424;292;617388;-53
2022/09/12 01:25:37;;;;;;;69.40;39.30;;;;;;;22.57;65.33;96881.63;180534;291;621170;-54
2022/09/12 01:26:39;;;;;;;67.78;38.38;;;;;;;22.56;65.35;96880.02;180218;292;617529;-56
2022/09/12 01:27:42;;;;;;;62.27;35.98;;;;;;;22.56;65.34;96880.02;180467;292;620163;-51
2022/09/12 01:28:44;;;;;;;63.17;37.17;;;;;;;22.54;65.36;96881.70;178615;295;616950;-54
2022/09/12 01:29:46;;;;;;;60.28;36.25;;;;;;;22.54;65.36;96878.95;177931;295;619228;-56
2022/09/12 01:30:48;;;;;;;64.00;36.55;;;;;;;22.53;65.36;96877.34;179102;294;617994;-51
2022/09/12 01:31:50;;;;;;;52.50;32.55;;;;;;;22.51;65.36;96876.87;179517;294;621547;-51
2022/09/12 01:32:52;;;;;;;55.25;34.38;;;;;;;22.51;65.37;96883.20;179148;294;617938;-53
2022/09/12 01:33:54;;;;;;;55.38;33.28;;;;;;;22.52;65.38;96884.02;179003;294;621216;-56
2022/09/12 01:34:56;;;;;;;51.30;32.88;;;;;;;22.49;65.35;96877.23;180316;292;617357;-57
2022/09/12 01:35:59;;;;;;;47.75;32.25;;;;;;;22.50;65.37;96876.08;180240;292;621022;-55
2022/09/12 01:37:01;;;;;;;45.50;30.05;;;;;;;22.49;65.38;96871.70;178540;295;616344;-57
2022/09/12 01:38:03;;;;;;;50.15;32.25;;;;;;;22.49;65.38;96881.38;178881;294;620262;-52
2022/09/12 01:39:05;;;;;;;51.68;32.80;;;;;;;22.48;65.40;96878.38;180765;292;617968;-53
2022/09/12 01:40:09;;;;;;;45.83;30.17;;;;;;;22.48;65.40;96881.14;180321;292;620356;-55
2022/09/12 01:41:11;;;;;;;42.45;29.27;;;;;;;22.47;65.40;96880.91;178212;295;617929;-55
2022/09/12 01:42:13;;;;;;;44.00;29.02;;;;;;;22.46;65.40;96877.12;179065;294;618963;-54
2022/09/12 01:43:16;;;;;;;43.42;29.75;;;;;;;22.45;65.41;96875.51;180350;292;618334;-51
2022/09/12 01:44:18;;;;;;;46.30;29.87;;;;;;;22.45;65.42;96882.41;178627;295;621579;-54
2022/09/12 01:45:21;;;;;;;40.98;28.65;;;;;;;22.44;65.44;96878.84;178758;294;617574;-55
2022/09/12 01:46:23;;;;;;;46.77;30.20;;;;;;;22.43;65.44;96877.20;179878;292;620442;-52
2022/09/12 01:47:25;;;;;;;45.78;30.27;;;;;;;22.42;65.47;96875.59;178754;295;617410;-59
2022/09/12 01:48:27;;;;;;;38.30;27.02;;;;;;;22.42;65.47;96873.41;179318;294;620598;-52
2022/09/12 01:49:29;;;;;;;42.38;27.93;;;;;;;22.41;65.46;96871.80;180462;292;618760;-54
2022/09/12 01:50:31;;;;;;;40.67;28.17;;;;;;;22.41;65.49;96872.61;180247;292;620589;-52
2022/09/12 01:51:34;;;;;;;46.83;30.57;;;;;;;22.39;65.49;96873.52;180350;292;617307;-54
2022/09/12 01:52:36;;;;;;;41.70;28.92;;;;;;;22.39;65.49;96872.14;180274;292;620740;-51
2022/09/12 01:53:39;;;;;;;39.15;27.27;;;;;;;22.38;65.50;96872.49;178167;295;617577;-55
2022/09/12 01:54:41;;;;;;;40.17;28.95;;;;;;;22.39;65.49;96874.91;178702;295;620407;-54
2022/09/12 01:55:43;;;;;;;39.92;28.70;;;;;;;22.37;65.49;96872.27;178695;295;619212;-54
2022/09/12 01:56:45;;;;;;;41.88;28.73;;;;;;;22.36;65.51;96870.08;178739;295;620753;-53
2022/09/12 01:57:47;;;;;;;39.30;28.02;;;;;;;22.38;65.51;96875.25;178402;295;617123;-54
2022/09/12 01:58:49;;;;;;;40.20;27.55;;;;;;;22.36;65.52;96872.84;178858;295;621428;-54
2022/09/12 01:59:51;;;;;;;38.50;27.55;;;;;;;22.36;65.52;96875.60;178739;295;618316;-51
2022/09/12 02:00:53;;;;;;;40.88;29.10;;;;;;;22.35;65.53;96877.33;178575;295;621333;-51
2022/09/12 02:01:56;;;;;;;37.50;25.82;;;;;;;22.34;65.55;96876.52;178736;295;617909;-57
2022/09/12 02:03:01;;;;;;;38.13;27.22;;;;;;;22.33;65.57;96870.77;178830;295;622249;-55
2022/09/12 02:04:02;;;;;;;36.45;26.82;;;;;;;22.32;65.56;96876.03;178821;295;584719;-53
2022/09/12 02:05:04;;;;;;;39.13;27.07;;;;;;;22.33;65.59;96875.45;178054;295;621471;-57
2022/09/12 02:06:06;;;;;;;38.78;26.62;;;;;;;22.31;65.58;96877.19;178758;295;617997;-53
2022/09/12 02:07:08;;;;;;;39.60;26.93;;;;;;;22.31;65.59;96875.00;178849;295;620803;-56
2022/09/12 02:08:10;;;;;;;37.55;26.62;;;;;;;22.31;65.61;96874.42;178805;295;617553;-55
2022/09/12 02:09:12;;;;;;;41.02;27.37;;;;;;;22.30;65.62;96870.05;178825;295;621464;-52
2022/09/12 02:10:14;;;;;;;38.90;27.40;;;;;;;22.30;65.63;96876.95;178467;295;617864;-57
2022/09/12 02:11:17;;;;;;;38.33;26.73;;;;;;;22.30;65.63;96869.25;178518;295;619806;-54
2022/09/12 02:12:19;;;;;;;39.33;27.67;;;;;;;22.29;65.64;96875.34;178315;295;616181;-54
2022/09/12 02:13:21;;;;;;;39.25;27.60;;;;;;;22.29;65.66;96875.34;178607;295;620939;-53
2022/09/12 02:14:23;;;;;;;36.23;26.17;;;;;;;22.28;65.64;96870.97;178366;295;617081;-52
2022/09/12 02:15:25;;;;;;;38.13;26.30;;;;;;;22.29;65.66;96872.59;178800;294;621506;-56
2022/09/12 02:16:28;;;;;;;38.00;26.62;;;;;;;22.28;65.67;96873.73;178776;295;615853;-57
2022/09/12 02:17:30;;;;;;;37.67;27.58;;;;;;;22.28;65.67;96874.31;178548;295;621060;-53
2022/09/12 02:18:32;;;;;;;38.92;28.57;;;;;;;22.27;65.67;96872.12;178308;295;616326;-53
2022/09/12 02:19:34;;;;;;;39.27;27.15;;;;;;;22.27;65.68;96868.56;178732;295;621584;-53
2022/09/12 02:20:36;;;;;;;38.20;26.80;;;;;;;22.27;65.69;96872.12;178678;295;617928;-53
2022/09/12 02:21:38;;;;;;;39.85;27.37;;;;;;;22.27;65.71;96876.84;178866;295;620476;-54
2022/09/12 02:22:40;;;;;;;39.67;28.32;;;;;;;22.26;65.70;96873.85;178862;295;617817;-56
2022/09/12 02:23:42;;;;;;;40.20;27.48;;;;;;;22.26;65.71;96869.13;178830;295;620826;-53
2022/09/12 02:24:45;;;;;;;37.67;26.07;;;;;;;22.25;65.73;96870.86;178832;295;616910;-54
2022/09/12 02:25:47;;;;;;;39.85;26.70;;;;;;;22.24;65.72;96867.30;178824;295;621308;-55
2022/09/12 02:26:49;;;;;;;42.25;27.25;;;;;;;22.24;65.75;96875.58;178851;295;618879;-56
2022/09/12 02:27:51;;;;;;;37.85;27.73;;;;;;;22.24;65.75;96872.81;178465;295;621779;-54
2022/09/12 02:28:53;;;;;;;36.33;24.67;;;;;;;22.24;65.76;96871.44;178794;295;616258;-51
2022/09/12 02:29:55;;;;;;;34.35;24.52;;;;;;;22.23;65.79;96873.39;178826;295;621693;-54
2022/09/12 02:30:57;;;;;;;39.63;27.00;;;;;;;22.22;65.79;96869.56;178685;295;616088;-56
2022/09/12 02:32:00;;;;;;;35.73;26.00;;;;;;;22.21;65.79;96866.58;178793;295;620308;-56
2022/09/12 02:33:02;;;;;;;39.55;26.17;;;;;;;22.21;65.81;96872.09;178604;295;616951;-54
2022/09/12 02:34:04;;;;;;;35.03;25.80;;;;;;;22.21;65.82;96867.95;178314;295;621373;-55
2022/09/12 02:35:07;;;;;;;38.15;26.60;;;;;;;22.20;65.82;96864.39;178107;295;618105;-53
2022/09/12 02:36:11;;;;;;;37.90;26.42;;;;;;;22.18;65.82;96869.45;178836;295;620727;-53
2022/09/12 02:37:13;;;;;;;39.88;27.22;;;;;;;22.20;65.84;96870.48;177974;296;585927;-56
2022/09/12 02:38:15;;;;;;;38.20;26.75;;;;;;;22.18;65.87;96871.41;178779;295;620548;-55
2022/09/12 02:39:20;;;;;;;38.83;27.22;;;;;;;22.17;65.88;96871.98;178663;295;617743;-53
2022/09/12 02:40:22;;;;;;;37.38;26.20;;;;;;;22.19;65.87;96875.78;178636;295;620818;-55
2022/09/12 02:41:25;;;;;;;35.78;25.35;;;;;;;22.16;65.90;96873.13;178639;295;618323;-57
2022/09/12 02:42:27;;;;;;;38.78;27.25;;;;;;;22.17;65.90;96874.74;179635;293;621327;-53
2022/09/12 02:43:29;;;;;;;34.90;25.08;;;;;;;22.16;65.92;96874.52;179753;293;619351;-55
2022/09/12 02:44:31;;;;;;;39.40;27.93;;;;;;;22.18;65.94;96868.65;179790;293;620339;-56
2022/09/12 02:45:33;;;;;;;34.27;25.08;;;;;;;22.16;65.96;96874.52;179763;292;617195;-51
2022/09/12 02:46:35;;;;;;;38.17;26.50;;;;;;;22.15;65.96;96872.91;179724;293;620195;-54
2022/09/12 02:47:37;;;;;;;37.80;26.30;;;;;;;22.16;65.97;96875.09;179790;293;616256;-56
2022/09/12 02:48:40;;;;;;;37.78;25.72;;;;;;;22.15;65.97;96871.52;179772;293;621291;-55
2022/09/12 02:49:42;;;;;;;36.08;26.10;;;;;;;22.14;65.96;96873.25;179733;293;617081;-51
2022/09/12 02:50:44;;;;;;;37.15;26.17;;;;;;;22.13;66.00;96872.45;179644;293;621599;-51
2022/09/12 02:51:46;;;;;;;35.38;24.77;;;;;;;22.14;66.02;96873.25;177959;295;617823;-56
2022/09/12 02:52:48;;;;;;;37.53;26.57;;;;;;;22.13;66.00;96868.30;179782;293;621643;-54
2022/09/12 02:53:50;;;;;;;37.88;26.50;;;;;;;22.14;66.02;96875.44;180182;291;617319;-53
2022/09/12 02:54:52;;;;;;;36.48;25.40;;;;;;;22.13;66.04;96869.69;180775;291;619516;-52
2022/09/12 02:55:54;;;;;;;34.45;24.55;;;;;;;22.12;66.04;96870.83;180640;291;616516;-59
2022/09/12 02:56:57;;;;;;;38.02;25.88;;;;;;;22.13;66.04;96868.87;179289;294;621409;-52
2022/09/12 02:57:59;;;;;;;36.13;25.85;;;;;;;22.13;66.05;96865.55;179250;294;618190;-53
2022/09/12 02:59:01;;;;;;;38.10;26.25;;;;;;;22.12;66.06;96865.31;179239;294;621435;-56
2022/09/12 03:00:03;;;;;;;38.00;26.23;;;;;;;22.13;66.07;96866.12;179060;294;617996;-52
2022/09/12 03:01:05;;;;;;;39.83;26.82;;;;;;;22.11;66.08;96864.25;178755;295;621574;-54
2022/09/12 03:02:07;;;;;;;36.55;25.77;;;;;;;22.11;66.12;96856.77;179253;294;617113;-54
2022/09/12 03:03:09;;;;;;;37.15;25.45;;;;;;;22.12;66.12;96867.27;179350;294;620467;-53
2022/09/12 03:04:12;;;;;;;38.48;26.85;;;;;;;22.10;66.15;96859.88;179174;294;616204;-64
2022/09/12 03:05:14;;;;;;;34.98;25.92;;;;;;;22.10;66.15;96864.82;180537;291;621471;-53
2022/09/12 03:06:16;;;;;;;35.68;25.70;;;;;;;22.10;66.16;96867.58;180831;291;618160;-54
2022/09/12 03:07:18;;;;;;;37.93;24.70;;;;;;;22.10;66.18;96868.16;180638;291;621567;-52
2022/09/12 03:08:20;;;;;;;35.95;25.35;;;;;;;22.10;66.20;96865.40;180873;291;618752;-51
2022/09/12 03:09:22;;;;;;;35.05;24.87;;;;;;;22.10;66.21;96862.64;180502;291;619635;-55
2022/09/12 03:10:24;;;;;;;35.95;25.17;;;;;;;22.11;66.20;96869.77;179218;294;617352;-58
2022/09/12 03:11:27;;;;;;;39.13;26.15;;;;;;;22.10;66.23;96868.96;178959;294;621615;-52
2022/09/12 03:12:29;;;;;;;38.02;25.25;;;;;;;22.09;66.23;96865.97;180368;291;617471;-55
2022/09/12 03:13:31;;;;;;;35.78;25.15;;;;;;;22.08;66.23;96862.98;180568;291;620525;-54
2022/09/12 03:14:33;;;;;;;37.15;26.40;;;;;;;22.09;66.26;96867.92;180610;291;618251;-52
2022/09/12 03:15:35;;;;;;;38.17;25.55;;;;;;;22.09;66.25;96863.79;180541;291;620941;-52
2022/09/12 03:16:37;;;;;;;34.48;24.95;;;;;;;22.08;66.28;96864.36;180269;291;618200;-53
2022/09/12 03:17:40;;;;;;;36.50;25.68;;;;;;;22.09;66.29;96865.17;178871;294;622428;-58
2022/09/12 03:18:42;;;;;;;38.83;26.07;;;;;;;22.08;66.30;96868.50;179298;294;617006;-53
2022/09/12 03:19:45;;;;;;;35.35;25.30;;;;;;;22.09;66.31;96865.17;179256;294;620275;-57
2022/09/12 03:20:47;;;;;;;34.67;25.15;;;;;;;22.08;66.32;96867.13;178872;294;617987;-53
2022/09/12 03:21:49;;;;;;;38.40;24.15;;;;;;;22.07;66.32;96864.13;179115;294;621322;-57
2022/09/12 03:22:52;;;;;;;35.70;24.65;;;;;;;22.07;66.33;96866.09;178800;295;618104;-52
2022/09/12 03:23:54;;;;;;;37.25;25.72;;;;;;;22.07;66.34;96873.79;179203;294;621662;-50
2022/09/12 03:24:56;;;;;;;35.13;24.63;;;;;;;22.07;66.34;96872.98;179121;294;616430;-52
2022/09/12 03:25:58;;;;;;;34.75;24.87;;;;;;;22.06;66.36;96869.42;178841;294;621201;-58
2022/09/12 03:27:00;;;;;;;36.93;25.57;;;;;;;22.06;66.38;96874.94;180818;291;617678;-55
2022/09/12 03:28:06;;;;;;;39.23;26.55;;;;;;;22.06;66.39;96872.19;180344;291;619495;-51
2022/09/12 03:29:06;;;;;;;38.13;26.65;;;;;;;22.05;66.39;96869.16;180767;291;584357;-51
2022/09/12 03:30:09;;;;;;;33.90;24.00;;;;;;;22.05;66.41;96862.84;180562;291;621167;-56
2022/09/12 03:31:12;;;;;;;35.00;24.40;;;;;;;22.05;66.42;96868.36;180390;291;615598;-66
2022/09/12 03:32:14;;;;;;;37.67;25.25;;;;;;;22.05;66.45;96866.97;179211;294;621466;-52
2022/09/12 03:33:16;;;;;;;38.98;26.97;;;;;;;22.04;66.44;96871.69;178810;295;616780;-55
2022/09/12 03:34:18;;;;;;;37.67;25.45;;;;;;;22.05;66.45;96872.50;179259;294;620338;-51
2022/09/12 03:35:20;;;;;;;38.20;25.77;;;;;;;22.05;66.46;96869.73;178920;294;617620;-54
2022/09/12 03:36:22;;;;;;;39.50;25.82;;;;;;;22.04;66.47;96868.13;179353;294;620461;-53
2022/09/12 03:37:25;;;;;;;36.75;25.40;;;;;;;22.05;66.48;96862.84;179315;294;617942;-57
2022/09/12 03:38:27;;;;;;;35.23;25.17;;;;;;;22.05;66.50;96868.36;179249;294;621296;-53
2022/09/12 03:39:29;;;;;;;36.03;25.08;;;;;;;22.04;66.50;96863.98;179374;294;577521;-53
2022/09/12 03:40:32;;;;;;;35.85;25.25;;;;;;;22.04;66.52;96865.36;179490;294;581120;-54
2022/09/12 03:41:34;;;;;;;36.93;26.30;;;;;;;22.04;66.54;96861.22;179483;294;618025;-54
2022/09/12 03:42:36;;;;;;;38.08;26.45;;;;;;;22.04;66.53;96862.61;179590;294;621630;-54
2022/09/12 03:43:38;;;;;;;39.33;26.27;;;;;;;22.04;66.54;96859.84;179601;294;617125;-55
2022/09/12 03:44:40;;;;;;;36.17;24.55;;;;;;;22.04;66.56;96861.22;180779;291;620419;-55
2022/09/12 03:45:42;;;;;;;40.43;26.20;;;;;;;22.04;66.56;96865.36;179350;294;579966;-51
2022/09/12 03:46:44;;;;;;;37.58;26.20;;;;;;;22.03;66.56;96861.00;178989;294;621393;-53
2022/09/12 03:47:46;;;;;;;36.42;25.32;;;;;;;;;;178801;295;618195;-53
2022/09/12 03:48:49;;;;;;;38.00;24.98;;;;;;;22.04;66.60;96865.36;180352;291;620954;-55
2022/09/12 03:49:54;;;;;;;35.03;24.40;;;;;;;22.02;66.59;96860.19;179411;294;618374;-55
2022/09/12 03:50:56;;;;;;;37.63;25.35;;;;;;;22.02;66.60;96858.01;178639;294;620685;-50
2022/09/12 03:51:58;;;;;;;39.55;25.40;;;;;;;22.02;66.60;96863.53;179282;294;617427;-55
2022/09/12 03:53:00;;;;;;;37.83;25.17;;;;;;;22.02;66.63;96860.77;179288;294;620772;-56
2022/09/12 03:54:03;;;;;;;37.90;25.62;;;;;;;22.04;66.63;96859.84;178974;294;617009;-53
2022/09/12 03:55:05;;;;;;;36.65;25.10;;;;;;;22.02;66.65;96853.87;178911;294;621628;-54
2022/09/12 03:56:07;;;;;;;38.05;25.77;;;;;;;22.02;66.65;96855.25;178873;294;617382;-56
2022/09/12 03:57:09;;;;;;;36.55;24.27;;;;;;;22.02;66.65;96851.11;178778;295;622932;-51
2022/09/12 03:58:11;;;;;;;38.55;25.30;;;;;;;22.02;66.68;96853.87;177911;295;617822;-55
2022/09/12 03:59:13;;;;;;;37.38;24.70;;;;;;;22.01;66.69;96853.06;178817;295;619344;-53
2022/09/12 04:00:16;;;;;;;36.95;24.75;;;;;;;22.01;66.67;96857.20;178798;294;617968;-58
2022/09/12 04:01:18;;;;;;;37.85;26.35;;;;;;;22.01;66.70;96850.84;179717;292;621946;-56
2022/09/12 04:02:20;;;;;;;37.45;24.77;;;;;;;22.01;66.71;96850.84;180241;292;618305;-54
2022/09/12 04:03:22;;;;;;;37.42;25.60;;;;;;;22.01;66.70;96859.13;180283;292;619640;-55
2022/09/12 04:04:24;;;;;;;38.23;25.35;;;;;;;22.00;66.71;96856.13;180216;292;618083;-60
2022/09/12 04:05:27;;;;;;;38.42;25.65;;;;;;;22.01;66.71;96859.13;180344;291;621339;-51
2022/09/12 04:06:30;;;;;;;37.60;25.75;;;;;;;22.01;66.73;96854.98;180491;292;617722;-58
2022/09/12 04:07:32;;;;;;;37.55;25.77;;;;;;;21.99;66.75;96854.52;180535;292;620440;-51
2022/09/12 04:08:34;;;;;;;37.67;25.32;;;;;;;22.00;66.74;96850.61;180166;292;618107;-52
2022/09/12 04:09:36;;;;;;;38.33;24.63;;;;;;;22.00;66.74;96856.13;180406;292;621722;-56
2022/09/12 04:10:38;;;;;;;36.88;24.90;;;;;;;22.00;66.77;96856.13;180260;292;618144;-53
2022/09/12 04:11:40;;;;;;;35.00;24.95;;;;;;;21.99;66.80;96851.19;180026;292;621822;-55
2022/09/12 04:12:42;;;;;;;36.33;24.67;;;;;;;22.00;66.78;96861.08;180082;292;617443;-51
2022/09/12 04:13:44;;;;;;;36.63;25.15;;;;;;;21.99;66.79;96851.77;180484;292;620509;-54
2022/09/12 04:14:49;;;;;;;38.83;25.43;;;;;;;21.99;66.79;96852.57;180458;292;618186;-54
2022/09/12 04:15:51;;;;;;;39.40;25.75;;;;;;;22.00;66.83;96850.61;179920;292;592635;-54
2022/09/12 04:16:53;;;;;;;37.40;26.02;;;;;;;21.99;66.84;96854.52;179875;292;616681;-51
2022/09/12 04:17:55;;;;;;;37.63;25.62;;;;;;;21.99;66.85;96852.57;180198;292;619008;-54
2022/09/12 04:18:57;;;;;;;41.20;26.30;;;;;;;21.99;66.85;96849.00;180219;292;618331;-56
2022/09/12 04:19:59;;;;;;;36.65;25.08;;;;;;;21.99;66.85;96850.38;180046;292;621108;-55
2022/09/12 04:21:01;;;;;;;40.85;26.10;;;;;;;21.98;66.86;96848.20;179986;292;617240;-52
2022/09/12 04:22:03;;;;;;;36.42;25.23;;;;;;;21.98;66.86;96855.67;180342;292;621484;-55
2022/09/12 04:23:06;;;;;;;37.42;24.43;;;;;;;21.97;66.89;96852.11;180500;292;618195;-54
2022/09/12 04:24:08;;;;;;;37.10;24.92;;;;;;;21.97;66.90;96852.11;179787;292;621524;-53
2022/09/12 04:25:10;;;;;;;39.27;26.23;;;;;;;21.98;66.93;96855.67;180442;291;617101;-56
2022/09/12 04:26:12;;;;;;;37.75;25.08;;;;;;;21.97;66.94;96849.34;180355;292;621722;-53
2022/09/12 04:27:14;;;;;;;39.38;25.52;;;;;;;21.98;66.93;96848.77;180236;292;617249;-55
2022/09/12 04:28:16;;;;;;;40.17;26.37;;;;;;;21.97;66.94;96846.59;180145;292;620631;-51
2022/09/12 04:29:19;;;;;;;38.13;25.97;;;;;;;21.96;66.94;96850.50;180043;292;617200;-55
2022/09/12 04:30:21;;;;;;;38.58;26.40;;;;;;;21.97;66.96;96848.55;179963;292;621301;-55
2022/09/12 04:31:23;;;;;;;38.75;25.52;;;;;;;21.96;66.96;96846.36;179768;292;616959;-51
2022/09/12 04:32:25;;;;;;;37.03;25.20;;;;;;;21.96;66.96;96840.84;180133;292;621120;-56
2022/09/12 04:33:27;;;;;;;37.93;24.67;;;;;;;21.97;66.98;96838.89;179913;292;619048;-54
2022/09/12 04:34:29;;;;;;;37.65;25.23;;;;;;;21.97;66.99;96836.13;180320;292;620251;-53
2022/09/12 04:35:32;;;;;;;38.00;25.08;;;;;;;21.95;66.97;96836.47;180381;291;617152;-53
2022/09/12 04:36:34;;;;;;;39.67;24.92;;;;;;;21.96;67.00;96839.46;180208;292;621727;-53
2022/09/12 04:37:36;;;;;;;38.70;25.62;;;;;;;21.96;67.00;96842.22;180280;292;618348;-55
2022/09/12 04:38:38;;;;;;;36.25;24.65;;;;;;;21.94;66.97;96834.28;180406;292;621932;-58
2022/09/12 04:39:40;;;;;;;40.48;25.48;;;;;;;21.95;67.00;96840.61;180468;292;618095;-57
2022/09/12 04:40:43;;;;;;;39.38;25.92;;;;;;;21.95;67.00;96840.03;180071;292;619051;-56
2022/09/12 04:41:45;;;;;;;36.68;24.82;;;;;;;21.93;66.99;96846.47;180159;292;616942;-56